Abegall, Kentucky
Current Conditions -  °F | °C
As of 3:15 PM on Monday 26 Jan 2015 (Local Time) from KFGX Reporting Station
Overcast Overcast  
Wind Chill: 17°   Ceiling: 1400
Heat Index: 26°   Visibility: 10mi
Dew Point: 21°   Wind: 8mph
Humidity: 83%   Direction: 280°W
Pressure: 29.88"   Gusts: NA
Location:  38.6546°N, 83.9578°W
Report Text: KFGX 262015Z AUTO 28007KT 10SM OVC014 M03/M06 A2988 RMK AO2 T10341059
Loading
Personal Weather Stations






























Interactive Weather Map New forecast layout! Learn more

10-Day Weather Forecast

Advertisements
Track Severe Weather on mobile